sensor_id;sensor_type;location;lat;lon;timestamp;P1;durP1;ratioP1;P2;durP2;ratioP2
37517;SDS011;23366;52.498;13.446;2024-01-11T00:01:14;8.90;;;3.80;;
37517;SDS011;23366;52.498;13.446;2024-01-11T00:03:40;11.50;;;5.35;;
37517;SDS011;23366;52.498;13.446;2024-01-11T00:06:06;9.48;;;4.22;;
37517;SDS011;23366;52.498;13.446;2024-01-11T00:08:31;7.80;;;3.17;;
37517;SDS011;23366;52.498;13.446;2024-01-11T00:10:57;9.57;;;3.90;;
37517;SDS011;23366;52.498;13.446;2024-01-11T00:13:23;10.60;;;5.05;;
37517;SDS011;23366;52.498;13.446;2024-01-11T00:15:49;6.78;;;3.97;;
37517;SDS011;23366;52.498;13.446;2024-01-11T00:18:15;6.45;;;4.80;;
37517;SDS011;23366;52.498;13.446;2024-01-11T00:20:42;11.60;;;4.63;;
37517;SDS011;23366;52.498;13.446;2024-01-11T00:23:08;9.80;;;5.35;;
37517;SDS011;23366;52.498;13.446;2024-01-11T00:25:34;10.05;;;4.93;;
37517;SDS011;23366;52.498;13.446;2024-01-11T00:28:00;14.27;;;6.60;;
37517;SDS011;23366;52.498;13.446;2024-01-11T00:30:26;12.77;;;5.55;;
37517;SDS011;23366;52.498;13.446;2024-01-11T00:32:52;13.70;;;4.90;;
37517;SDS011;23366;52.498;13.446;2024-01-11T00:35:18;11.70;;;5.95;;
37517;SDS011;23366;52.498;13.446;2024-01-11T00:37:44;10.60;;;6.07;;
37517;SDS011;23366;52.498;13.446;2024-01-11T00:40:11;15.10;;;5.30;;
37517;SDS011;23366;52.498;13.446;2024-01-11T00:42:37;13.63;;;6.15;;
37517;SDS011;23366;52.498;13.446;2024-01-11T00:45:03;13.88;;;4.03;;
37517;SDS011;23366;52.498;13.446;2024-01-11T00:47:29;5.75;;;3.15;;
37517;SDS011;23366;52.498;13.446;2024-01-11T00:49:55;11.27;;;2.78;;
37517;SDS011;23366;52.498;13.446;2024-01-11T00:52:21;4.20;;;3.17;;
37517;SDS011;23366;52.498;13.446;2024-01-11T00:54:47;5.80;;;2.45;;
37517;SDS011;23366;52.498;13.446;2024-01-11T00:57:13;9.05;;;3.80;;
37517;SDS011;23366;52.498;13.446;2024-01-11T00:59:42;7.15;;;3.78;;
37517;SDS011;23366;52.498;13.446;2024-01-11T01:02:08;8.80;;;3.97;;
37517;SDS011;23366;52.498;13.446;2024-01-11T01:04:37;8.68;;;3.30;;
37517;SDS011;23366;52.498;13.446;2024-01-11T01:07:03;9.50;;;4.57;;
37517;SDS011;23366;52.498;13.446;2024-01-11T01:09:30;13.80;;;4.43;;
37517;SDS011;23366;52.498;13.446;2024-01-11T01:11:56;8.88;;;5.38;;
37517;SDS011;23366;52.498;13.446;2024-01-11T01:14:22;9.32;;;4.40;;
37517;SDS011;23366;52.498;13.446;2024-01-11T01:16:48;10.02;;;5.22;;
37517;SDS011;23366;52.498;13.446;2024-01-11T01:19:14;5.22;;;3.10;;
37517;SDS011;23366;52.498;13.446;2024-01-11T01:21:40;7.32;;;4.00;;
37517;SDS011;23366;52.498;13.446;2024-01-11T01:24:06;7.80;;;3.78;;
37517;SDS011;23366;52.498;13.446;2024-01-11T01:26:32;11.95;;;5.10;;
37517;SDS011;23366;52.498;13.446;2024-01-11T01:28:58;7.47;;;3.33;;
37517;SDS011;23366;52.498;13.446;2024-01-11T01:31:24;11.93;;;3.65;;
37517;SDS011;23366;52.498;13.446;2024-01-11T01:33:50;10.65;;;5.95;;
37517;SDS011;23366;52.498;13.446;2024-01-11T01:36:15;8.00;;;5.55;;
37517;SDS011;23366;52.498;13.446;2024-01-11T01:38:42;7.97;;;3.63;;
37517;SDS011;23366;52.498;13.446;2024-01-11T01:41:08;8.38;;;5.43;;
37517;SDS011;23366;52.498;13.446;2024-01-11T01:43:34;6.55;;;3.25;;
37517;SDS011;23366;52.498;13.446;2024-01-11T01:46:00;8.88;;;3.92;;
37517;SDS011;23366;52.498;13.446;2024-01-11T01:48:26;7.85;;;4.13;;
37517;SDS011;23366;52.498;13.446;2024-01-11T01:50:52;7.20;;;3.22;;
37517;SDS011;23366;52.498;13.446;2024-01-11T01:53:22;5.65;;;3.70;;
37517;SDS011;23366;52.498;13.446;2024-01-11T01:55:48;11.23;;;4.28;;
37517;SDS011;23366;52.498;13.446;2024-01-11T01:58:15;11.25;;;4.03;;
37517;SDS011;23366;52.498;13.446;2024-01-11T02:00:41;5.50;;;2.55;;
37517;SDS011;23366;52.498;13.446;2024-01-11T02:03:07;7.22;;;3.10;;
37517;SDS011;23366;52.498;13.446;2024-01-11T02:05:34;9.18;;;3.33;;
37517;SDS011;23366;52.498;13.446;2024-01-11T02:08:00;5.57;;;3.60;;
37517;SDS011;23366;52.498;13.446;2024-01-11T02:10:26;9.77;;;3.70;;
37517;SDS011;23366;52.498;13.446;2024-01-11T02:12:52;7.63;;;3.42;;
37517;SDS011;23366;52.498;13.446;2024-01-11T02:15:18;10.55;;;4.03;;
37517;SDS011;23366;52.498;13.446;2024-01-11T02:17:44;8.95;;;3.50;;
37517;SDS011;23366;52.498;13.446;2024-01-11T02:20:10;13.68;;;4.93;;
37517;SDS011;23366;52.498;13.446;2024-01-11T02:22:38;9.18;;;2.97;;
37517;SDS011;23366;52.498;13.446;2024-01-11T02:25:06;9.25;;;3.97;;
37517;SDS011;23366;52.498;13.446;2024-01-11T02:27:45;8.05;;;3.00;;
37517;SDS011;23366;52.498;13.446;2024-01-11T02:30:11;7.30;;;3.53;;
37517;SDS011;23366;52.498;13.446;2024-01-11T02:32:37;12.57;;;3.15;;
37517;SDS011;23366;52.498;13.446;2024-01-11T02:35:03;6.75;;;2.70;;
37517;SDS011;23366;52.498;13.446;2024-01-11T02:37:30;12.57;;;6.32;;
37517;SDS011;23366;52.498;13.446;2024-01-11T02:39:56;7.45;;;3.25;;
37517;SDS011;23366;52.498;13.446;2024-01-11T02:42:22;9.77;;;3.47;;
37517;SDS011;23366;52.498;13.446;2024-01-11T02:44:48;12.75;;;4.22;;
37517;SDS011;23366;52.498;13.446;2024-01-11T02:47:14;5.50;;;2.85;;
37517;SDS011;23366;52.498;13.446;2024-01-11T02:49:40;13.82;;;3.75;;
37517;SDS011;23366;52.498;13.446;2024-01-11T02:52:06;11.70;;;5.00;;
37517;SDS011;23366;52.498;13.446;2024-01-11T02:54:32;7.63;;;3.53;;
37517;SDS011;23366;52.498;13.446;2024-01-11T02:56:58;5.97;;;2.67;;
37517;SDS011;23366;52.498;13.446;2024-01-11T02:59:24;12.48;;;4.28;;
37517;SDS011;23366;52.498;13.446;2024-01-11T03:01:50;9.77;;;3.10;;
37517;SDS011;23366;52.498;13.446;2024-01-11T03:04:16;9.15;;;3.72;;
37517;SDS011;23366;52.498;13.446;2024-01-11T03:06:42;9.57;;;2.95;;
37517;SDS011;23366;52.498;13.446;2024-01-11T03:09:08;8.98;;;4.15;;
37517;SDS011;23366;52.498;13.446;2024-01-11T03:11:34;9.02;;;4.30;;
37517;SDS011;23366;52.498;13.446;2024-01-11T03:14:00;8.98;;;4.45;;
37517;SDS011;23366;52.498;13.446;2024-01-11T03:16:27;11.18;;;5.03;;
37517;SDS011;23366;52.498;13.446;2024-01-11T03:18:53;10.02;;;4.32;;
37517;SDS011;23366;52.498;13.446;2024-01-11T03:21:19;9.23;;;4.35;;
37517;SDS011;23366;52.498;13.446;2024-01-11T03:23:45;7.93;;;3.60;;
37517;SDS011;23366;52.498;13.446;2024-01-11T03:26:15;13.35;;;5.25;;
37517;SDS011;23366;52.498;13.446;2024-01-11T03:28:41;6.22;;;2.78;;
37517;SDS011;23366;52.498;13.446;2024-01-11T03:31:08;12.98;;;4.68;;
37517;SDS011;23366;52.498;13.446;2024-01-11T03:33:34;7.68;;;5.32;;
37517;SDS011;23366;52.498;13.446;2024-01-11T03:36:05;10.73;;;4.00;;
37517;SDS011;23366;52.498;13.446;2024-01-11T03:38:32;9.88;;;3.53;;
37517;SDS011;23366;52.498;13.446;2024-01-11T03:40:58;4.97;;;2.63;;
37517;SDS011;23366;52.498;13.446;2024-01-11T03:43:24;9.35;;;3.05;;
37517;SDS011;23366;52.498;13.446;2024-01-11T03:45:50;9.80;;;3.80;;
37517;SDS011;23366;52.498;13.446;2024-01-11T03:48:16;12.52;;;4.30;;
37517;SDS011;23366;52.498;13.446;2024-01-11T03:50:41;7.38;;;3.20;;
37517;SDS011;23366;52.498;13.446;2024-01-11T03:53:07;7.60;;;4.25;;
37517;SDS011;23366;52.498;13.446;2024-01-11T03:55:33;5.85;;;3.80;;
37517;SDS011;23366;52.498;13.446;2024-01-11T03:57:59;6.32;;;4.63;;
37517;SDS011;23366;52.498;13.446;2024-01-11T04:00:25;6.88;;;4.55;;
37517;SDS011;23366;52.498;13.446;2024-01-11T04:02:51;9.65;;;4.50;;
37517;SDS011;23366;52.498;13.446;2024-01-11T04:05:17;7.85;;;3.42;;
37517;SDS011;23366;52.498;13.446;2024-01-11T04:07:43;6.68;;;3.88;;
37517;SDS011;23366;52.498;13.446;2024-01-11T04:10:09;5.72;;;2.17;;
37517;SDS011;23366;52.498;13.446;2024-01-11T04:12:35;5.30;;;3.08;;
37517;SDS011;23366;52.498;13.446;2024-01-11T04:15:02;4.93;;;2.65;;
37517;SDS011;23366;52.498;13.446;2024-01-11T04:17:28;7.00;;;3.30;;
37517;SDS011;23366;52.498;13.446;2024-01-11T04:19:54;8.05;;;2.65;;
37517;SDS011;23366;52.498;13.446;2024-01-11T04:22:20;14.48;;;5.10;;
37517;SDS011;23366;52.498;13.446;2024-01-11T04:24:46;9.23;;;3.85;;
37517;SDS011;23366;52.498;13.446;2024-01-11T04:27:11;9.38;;;3.58;;
37517;SDS011;23366;52.498;13.446;2024-01-11T04:29:37;5.55;;;3.08;;
37517;SDS011;23366;52.498;13.446;2024-01-11T04:32:03;7.22;;;2.70;;
37517;SDS011;23366;52.498;13.446;2024-01-11T04:34:29;8.05;;;2.97;;
37517;SDS011;23366;52.498;13.446;2024-01-11T04:36:55;16.02;;;5.68;;
37517;SDS011;23366;52.498;13.446;2024-01-11T04:39:21;6.93;;;4.15;;
37517;SDS011;23366;52.498;13.446;2024-01-11T04:41:47;9.05;;;3.63;;
37517;SDS011;23366;52.498;13.446;2024-01-11T04:44:13;12.32;;;4.57;;
37517;SDS011;23366;52.498;13.446;2024-01-11T04:46:39;8.30;;;3.30;;
37517;SDS011;23366;52.498;13.446;2024-01-11T04:49:05;5.15;;;3.22;;
37517;SDS011;23366;52.498;13.446;2024-01-11T04:51:31;6.38;;;3.58;;
37517;SDS011;23366;52.498;13.446;2024-01-11T04:53:57;11.82;;;5.05;;
37517;SDS011;23366;52.498;13.446;2024-01-11T04:56:23;9.82;;;3.75;;
37517;SDS011;23366;52.498;13.446;2024-01-11T04:58:49;18.52;;;6.28;;
37517;SDS011;23366;52.498;13.446;2024-01-11T05:01:15;5.40;;;3.95;;
37517;SDS011;23366;52.498;13.446;2024-01-11T05:03:42;10.50;;;5.15;;
37517;SDS011;23366;52.498;13.446;2024-01-11T05:06:08;14.43;;;5.85;;
37517;SDS011;23366;52.498;13.446;2024-01-11T05:08:34;12.50;;;4.43;;
37517;SDS011;23366;52.498;13.446;2024-01-11T05:11:00;20.55;;;5.53;;
37517;SDS011;23366;52.498;13.446;2024-01-11T05:13:26;15.93;;;6.70;;
37517;SDS011;23366;52.498;13.446;2024-01-11T05:15:52;13.82;;;5.38;;
37517;SDS011;23366;52.498;13.446;2024-01-11T05:18:18;11.85;;;5.75;;
37517;SDS011;23366;52.498;13.446;2024-01-11T05:20:44;15.27;;;5.75;;
37517;SDS011;23366;52.498;13.446;2024-01-11T05:23:10;14.60;;;6.50;;
37517;SDS011;23366;52.498;13.446;2024-01-11T05:25:36;15.15;;;5.65;;
37517;SDS011;23366;52.498;13.446;2024-01-11T05:28:03;11.05;;;4.40;;
37517;SDS011;23366;52.498;13.446;2024-01-11T05:30:29;15.10;;;5.88;;
37517;SDS011;23366;52.498;13.446;2024-01-11T05:32:55;11.32;;;4.32;;
37517;SDS011;23366;52.498;13.446;2024-01-11T05:35:22;12.55;;;5.70;;
37517;SDS011;23366;52.498;13.446;2024-01-11T05:37:52;15.20;;;5.65;;
37517;SDS011;23366;52.498;13.446;2024-01-11T05:40:20;13.88;;;6.03;;
37517;SDS011;23366;52.498;13.446;2024-01-11T05:42:46;8.98;;;3.88;;
37517;SDS011;23366;52.498;13.446;2024-01-11T05:45:12;11.57;;;5.07;;
37517;SDS011;23366;52.498;13.446;2024-01-11T05:47:41;14.85;;;4.80;;
37517;SDS011;23366;52.498;13.446;2024-01-11T05:50:07;13.93;;;5.82;;
37517;SDS011;23366;52.498;13.446;2024-01-11T05:52:33;14.45;;;5.35;;
37517;SDS011;23366;52.498;13.446;2024-01-11T05:54:59;20.30;;;5.97;;
37517;SDS011;23366;52.498;13.446;2024-01-11T05:57:25;17.30;;;5.78;;
37517;SDS011;23366;52.498;13.446;2024-01-11T05:59:51;13.18;;;5.07;;
37517;SDS011;23366;52.498;13.446;2024-01-11T06:02:17;12.20;;;6.43;;
37517;SDS011;23366;52.498;13.446;2024-01-11T06:04:43;16.45;;;5.97;;
37517;SDS011;23366;52.498;13.446;2024-01-11T06:07:09;12.73;;;4.63;;
37517;SDS011;23366;52.498;13.446;2024-01-11T06:09:35;19.58;;;6.43;;
37517;SDS011;23366;52.498;13.446;2024-01-11T06:12:01;15.80;;;5.72;;
37517;SDS011;23366;52.498;13.446;2024-01-11T06:14:27;16.30;;;6.28;;
37517;SDS011;23366;52.498;13.446;2024-01-11T06:16:53;22.50;;;5.82;;
37517;SDS011;23366;52.498;13.446;2024-01-11T06:19:19;15.13;;;6.95;;
37517;SDS011;23366;52.498;13.446;2024-01-11T06:21:44;22.30;;;5.65;;
37517;SDS011;23366;52.498;13.446;2024-01-11T06:24:12;11.15;;;5.65;;
37517;SDS011;23366;52.498;13.446;2024-01-11T06:26:37;17.50;;;4.90;;
37517;SDS011;23366;52.498;13.446;2024-01-11T06:29:03;13.45;;;5.13;;
37517;SDS011;23366;52.498;13.446;2024-01-11T06:31:29;10.27;;;5.43;;
37517;SDS011;23366;52.498;13.446;2024-01-11T06:33:55;19.58;;;8.43;;
37517;SDS011;23366;52.498;13.446;2024-01-11T06:36:21;15.63;;;5.20;;
37517;SDS011;23366;52.498;13.446;2024-01-11T06:38:47;21.05;;;7.38;;
37517;SDS011;23366;52.498;13.446;2024-01-11T06:41:13;16.90;;;7.18;;
37517;SDS011;23366;52.498;13.446;2024-01-11T06:43:39;11.63;;;4.07;;
37517;SDS011;23366;52.498;13.446;2024-01-11T06:46:05;14.10;;;4.75;;
37517;SDS011;23366;52.498;13.446;2024-01-11T06:48:34;16.08;;;6.00;;
37517;SDS011;23366;52.498;13.446;2024-01-11T06:51:00;13.40;;;4.95;;
37517;SDS011;23366;52.498;13.446;2024-01-11T06:53:26;22.40;;;5.55;;
37517;SDS011;23366;52.498;13.446;2024-01-11T06:55:52;18.25;;;5.50;;
37517;SDS011;23366;52.498;13.446;2024-01-11T06:58:20;12.45;;;5.65;;
37517;SDS011;23366;52.498;13.446;2024-01-11T07:00:49;19.05;;;6.63;;
37517;SDS011;23366;52.498;13.446;2024-01-11T07:03:15;17.48;;;7.63;;
37517;SDS011;23366;52.498;13.446;2024-01-11T07:05:41;19.90;;;9.45;;
37517;SDS011;23366;52.498;13.446;2024-01-11T07:08:07;20.13;;;5.78;;
37517;SDS011;23366;52.498;13.446;2024-01-11T07:10:33;16.20;;;5.18;;
37517;SDS011;23366;52.498;13.446;2024-01-11T07:12:59;15.95;;;6.13;;
37517;SDS011;23366;52.498;13.446;2024-01-11T07:15:25;17.95;;;5.70;;
37517;SDS011;23366;52.498;13.446;2024-01-11T07:17:51;14.00;;;6.40;;
37517;SDS011;23366;52.498;13.446;2024-01-11T07:20:18;16.70;;;7.30;;
37517;SDS011;23366;52.498;13.446;2024-01-11T07:22:44;19.10;;;5.93;;
37517;SDS011;23366;52.498;13.446;2024-01-11T07:25:10;21.98;;;5.68;;
37517;SDS011;23366;52.498;13.446;2024-01-11T07:27:36;19.92;;;6.38;;
37517;SDS011;23366;52.498;13.446;2024-01-11T07:30:02;17.55;;;7.40;;
37517;SDS011;23366;52.498;13.446;2024-01-11T07:32:31;19.20;;;6.20;;
37517;SDS011;23366;52.498;13.446;2024-01-11T07:34:57;19.95;;;8.43;;
37517;SDS011;23366;52.498;13.446;2024-01-11T07:37:22;24.75;;;6.82;;
37517;SDS011;23366;52.498;13.446;2024-01-11T07:39:50;21.15;;;8.40;;
37517;SDS011;23366;52.498;13.446;2024-01-11T07:42:16;17.83;;;7.90;;
37517;SDS011;23366;52.498;13.446;2024-01-11T07:44:44;23.60;;;10.88;;
37517;SDS011;23366;52.498;13.446;2024-01-11T07:47:10;23.00;;;6.88;;
37517;SDS011;23366;52.498;13.446;2024-01-11T07:49:36;18.60;;;7.95;;
37517;SDS011;23366;52.498;13.446;2024-01-11T07:52:02;24.13;;;7.05;;
37517;SDS011;23366;52.498;13.446;2024-01-11T07:54:29;15.32;;;7.32;;
37517;SDS011;23366;52.498;13.446;2024-01-11T07:56:56;25.20;;;7.05;;
37517;SDS011;23366;52.498;13.446;2024-01-11T07:59:22;18.90;;;8.82;;
37517;SDS011;23366;52.498;13.446;2024-01-11T08:01:48;15.55;;;5.72;;
37517;SDS011;23366;52.498;13.446;2024-01-11T08:04:14;18.20;;;8.77;;
37517;SDS011;23366;52.498;13.446;2024-01-11T08:06:40;13.70;;;5.75;;
37517;SDS011;23366;52.498;13.446;2024-01-11T08:09:06;19.48;;;6.03;;
37517;SDS011;23366;52.498;13.446;2024-01-11T08:11:35;17.40;;;7.45;;
37517;SDS011;23366;52.498;13.446;2024-01-11T08:14:01;26.38;;;7.10;;
37517;SDS011;23366;52.498;13.446;2024-01-11T08:16:27;27.30;;;7.63;;
37517;SDS011;23366;52.498;13.446;2024-01-11T08:18:53;22.77;;;8.32;;
37517;SDS011;23366;52.498;13.446;2024-01-11T08:21:19;26.52;;;8.63;;
37517;SDS011;23366;52.498;13.446;2024-01-11T08:23:45;15.85;;;8.70;;
37517;SDS011;23366;52.498;13.446;2024-01-11T08:26:13;21.77;;;6.32;;
37517;SDS011;23366;52.498;13.446;2024-01-11T08:28:40;19.60;;;7.70;;
37517;SDS011;23366;52.498;13.446;2024-01-11T08:31:06;14.40;;;6.00;;
37517;SDS011;23366;52.498;13.446;2024-01-11T08:33:32;20.70;;;9.18;;
37517;SDS011;23366;52.498;13.446;2024-01-11T08:35:58;20.02;;;8.25;;
37517;SDS011;23366;52.498;13.446;2024-01-11T08:38:24;13.60;;;6.80;;
37517;SDS011;23366;52.498;13.446;2024-01-11T08:40:50;24.58;;;7.53;;
37517;SDS011;23366;52.498;13.446;2024-01-11T08:43:16;17.95;;;7.68;;
37517;SDS011;23366;52.498;13.446;2024-01-11T08:45:42;20.65;;;6.45;;
37517;SDS011;23366;52.498;13.446;2024-01-11T08:48:08;18.95;;;6.93;;
37517;SDS011;23366;52.498;13.446;2024-01-11T08:50:34;20.85;;;7.25;;
37517;SDS011;23366;52.498;13.446;2024-01-11T08:53:00;20.02;;;8.15;;
37517;SDS011;23366;52.498;13.446;2024-01-11T08:55:26;17.52;;;6.55;;
37517;SDS011;23366;52.498;13.446;2024-01-11T08:57:52;13.32;;;6.15;;
37517;SDS011;23366;52.498;13.446;2024-01-11T09:00:18;14.88;;;7.65;;
37517;SDS011;23366;52.498;13.446;2024-01-11T09:02:44;19.48;;;8.02;;
37517;SDS011;23366;52.498;13.446;2024-01-11T09:05:11;19.35;;;8.13;;
37517;SDS011;23366;52.498;13.446;2024-01-11T09:07:37;29.95;;;9.40;;
37517;SDS011;23366;52.498;13.446;2024-01-11T09:10:03;19.30;;;8.90;;
37517;SDS011;23366;52.498;13.446;2024-01-11T09:12:29;19.08;;;8.20;;
37517;SDS011;23366;52.498;13.446;2024-01-11T09:14:55;18.50;;;8.15;;
37517;SDS011;23366;52.498;13.446;2024-01-11T09:17:21;15.32;;;7.63;;
37517;SDS011;23366;52.498;13.446;2024-01-11T09:19:47;19.02;;;7.25;;
37517;SDS011;23366;52.498;13.446;2024-01-11T09:22:13;27.52;;;9.27;;
37517;SDS011;23366;52.498;13.446;2024-01-11T09:24:38;30.10;;;11.00;;
37517;SDS011;23366;52.498;13.446;2024-01-11T09:27:05;17.77;;;7.03;;
37517;SDS011;23366;52.498;13.446;2024-01-11T09:29:30;26.52;;;9.88;;
37517;SDS011;23366;52.498;13.446;2024-01-11T09:31:57;16.08;;;7.13;;
37517;SDS011;23366;52.498;13.446;2024-01-11T09:34:23;23.45;;;7.43;;
37517;SDS011;23366;52.498;13.446;2024-01-11T09:36:49;18.83;;;6.70;;
37517;SDS011;23366;52.498;13.446;2024-01-11T09:39:14;29.85;;;10.38;;
37517;SDS011;23366;52.498;13.446;2024-01-11T09:41:42;21.73;;;10.20;;
37517;SDS011;23366;52.498;13.446;2024-01-11T09:44:11;15.65;;;8.05;;
37517;SDS011;23366;52.498;13.446;2024-01-11T09:46:37;21.63;;;7.53;;
37517;SDS011;23366;52.498;13.446;2024-01-11T09:49:03;22.73;;;9.70;;
37517;SDS011;23366;52.498;13.446;2024-01-11T09:51:29;22.98;;;9.23;;
37517;SDS011;23366;52.498;13.446;2024-01-11T09:53:56;22.58;;;10.82;;
37517;SDS011;23366;52.498;13.446;2024-01-11T09:56:24;23.90;;;8.27;;
37517;SDS011;23366;52.498;13.446;2024-01-11T09:58:52;19.02;;;7.57;;
37517;SDS011;23366;52.498;13.446;2024-01-11T10:01:18;21.98;;;8.32;;
37517;SDS011;23366;52.498;13.446;2024-01-11T10:03:44;20.85;;;8.52;;
37517;SDS011;23366;52.498;13.446;2024-01-11T10:06:13;20.48;;;7.40;;
37517;SDS011;23366;52.498;13.446;2024-01-11T10:08:40;22.65;;;8.38;;
37517;SDS011;23366;52.498;13.446;2024-01-11T10:11:06;26.83;;;9.77;;
37517;SDS011;23366;52.498;13.446;2024-01-11T10:13:32;17.13;;;8.93;;
37517;SDS011;23366;52.498;13.446;2024-01-11T10:18:33;18.30;;;8.50;;
37517;SDS011;23366;52.498;13.446;2024-01-11T10:20:59;22.88;;;9.35;;
37517;SDS011;23366;52.498;13.446;2024-01-11T10:23:25;29.08;;;10.40;;
37517;SDS011;23366;52.498;13.446;2024-01-11T10:25:54;22.92;;;9.23;;
37517;SDS011;23366;52.498;13.446;2024-01-11T10:28:20;27.77;;;10.32;;
37517;SDS011;23366;52.498;13.446;2024-01-11T10:30:46;20.88;;;9.50;;
37517;SDS011;23366;52.498;13.446;2024-01-11T10:33:13;20.27;;;7.90;;
37517;SDS011;23366;52.498;13.446;2024-01-11T10:35:39;20.05;;;8.52;;
37517;SDS011;23366;52.498;13.446;2024-01-11T10:38:07;28.70;;;9.25;;
37517;SDS011;23366;52.498;13.446;2024-01-11T10:40:34;19.52;;;8.25;;
37517;SDS011;23366;52.498;13.446;2024-01-11T10:43:01;18.77;;;7.85;;
37517;SDS011;23366;52.498;13.446;2024-01-11T10:45:27;23.65;;;9.40;;
37517;SDS011;23366;52.498;13.446;2024-01-11T10:47:54;26.08;;;10.52;;
37517;SDS011;23366;52.498;13.446;2024-01-11T10:50:24;19.55;;;8.82;;
37517;SDS011;23366;52.498;13.446;2024-01-11T10:52:56;17.67;;;7.72;;
37517;SDS011;23366;52.498;13.446;2024-01-11T10:57:48;13.05;;;6.68;;
37517;SDS011;23366;52.498;13.446;2024-01-11T11:00:15;24.20;;;8.88;;
37517;SDS011;23366;52.498;13.446;2024-01-11T11:02:41;21.27;;;10.20;;
37517;SDS011;23366;52.498;13.446;2024-01-11T11:05:08;20.98;;;10.23;;
37517;SDS011;23366;52.498;13.446;2024-01-11T11:07:36;16.55;;;8.10;;
37517;SDS011;23366;52.498;13.446;2024-01-11T11:10:02;17.45;;;7.57;;
37517;SDS011;23366;52.498;13.446;2024-01-11T11:12:29;28.90;;;10.68;;
37517;SDS011;23366;52.498;13.446;2024-01-11T11:14:56;28.80;;;10.05;;
37517;SDS011;23366;52.498;13.446;2024-01-11T11:17:22;22.90;;;8.55;;
37517;SDS011;23366;52.498;13.446;2024-01-11T11:19:48;22.63;;;11.55;;
37517;SDS011;23366;52.498;13.446;2024-01-11T11:22:14;29.00;;;10.75;;
37517;SDS011;23366;52.498;13.446;2024-01-11T11:24:40;24.98;;;10.65;;
37517;SDS011;23366;52.498;13.446;2024-01-11T11:27:06;30.77;;;12.77;;
37517;SDS011;23366;52.498;13.446;2024-01-11T11:29:33;31.90;;;10.50;;
37517;SDS011;23366;52.498;13.446;2024-01-11T11:31:59;26.48;;;10.85;;
37517;SDS011;23366;52.498;13.446;2024-01-11T11:37:24;26.23;;;12.73;;
37517;SDS011;23366;52.498;13.446;2024-01-11T11:39:50;21.63;;;9.48;;
37517;SDS011;23366;52.498;13.446;2024-01-11T11:42:16;22.02;;;7.97;;
37517;SDS011;23366;52.498;13.446;2024-01-11T11:44:49;23.63;;;7.32;;
37517;SDS011;23366;52.498;13.446;2024-01-11T11:50:02;19.55;;;9.32;;
37517;SDS011;23366;52.498;13.446;2024-01-11T11:52:30;23.13;;;9.75;;
37517;SDS011;23366;52.498;13.446;2024-01-11T11:54:56;30.15;;;11.90;;
37517;SDS011;23366;52.498;13.446;2024-01-11T11:57:23;25.48;;;9.23;;
37517;SDS011;23366;52.498;13.446;2024-01-11T11:59:49;30.05;;;11.75;;
37517;SDS011;23366;52.498;13.446;2024-01-11T12:02:16;21.77;;;9.93;;
37517;SDS011;23366;52.498;13.446;2024-01-11T12:04:48;17.48;;;8.00;;
37517;SDS011;23366;52.498;13.446;2024-01-11T12:07:15;21.75;;;10.25;;
37517;SDS011;23366;52.498;13.446;2024-01-11T12:09:41;21.10;;;8.77;;
37517;SDS011;23366;52.498;13.446;2024-01-11T12:12:07;19.60;;;8.35;;
37517;SDS011;23366;52.498;13.446;2024-01-11T12:14:34;20.35;;;9.00;;
37517;SDS011;23366;52.498;13.446;2024-01-11T12:17:00;22.08;;;10.45;;
37517;SDS011;23366;52.498;13.446;2024-01-11T12:19:26;16.67;;;8.38;;
37517;SDS011;23366;52.498;13.446;2024-01-11T12:21:52;12.80;;;7.13;;
37517;SDS011;23366;52.498;13.446;2024-01-11T12:24:18;22.50;;;8.30;;
37517;SDS011;23366;52.498;13.446;2024-01-11T12:26:46;14.10;;;6.55;;
37517;SDS011;23366;52.498;13.446;2024-01-11T12:29:13;22.02;;;8.77;;
37517;SDS011;23366;52.498;13.446;2024-01-11T12:31:39;17.20;;;8.43;;
37517;SDS011;23366;52.498;13.446;2024-01-11T12:34:05;13.57;;;7.47;;
37517;SDS011;23366;52.498;13.446;2024-01-11T12:36:31;19.40;;;8.75;;
37517;SDS011;23366;52.498;13.446;2024-01-11T12:38:57;28.90;;;8.43;;
37517;SDS011;23366;52.498;13.446;2024-01-11T12:41:23;18.80;;;8.70;;
37517;SDS011;23366;52.498;13.446;2024-01-11T12:43:49;18.50;;;8.85;;
37517;SDS011;23366;52.498;13.446;2024-01-11T12:46:16;18.58;;;10.30;;
37517;SDS011;23366;52.498;13.446;2024-01-11T12:48:42;19.80;;;8.02;;
37517;SDS011;23366;52.498;13.446;2024-01-11T12:51:08;20.63;;;7.15;;
37517;SDS011;23366;52.498;13.446;2024-01-11T12:53:35;14.80;;;7.00;;
37517;SDS011;23366;52.498;13.446;2024-01-11T12:56:02;18.42;;;7.57;;
37517;SDS011;23366;52.498;13.446;2024-01-11T12:58:28;14.43;;;7.55;;
37517;SDS011;23366;52.498;13.446;2024-01-11T13:00:54;13.60;;;6.57;;
37517;SDS011;23366;52.498;13.446;2024-01-11T13:03:22;15.73;;;6.03;;
37517;SDS011;23366;52.498;13.446;2024-01-11T13:05:48;21.73;;;8.18;;
37517;SDS011;23366;52.498;13.446;2024-01-11T13:08:14;20.17;;;7.75;;
37517;SDS011;23366;52.498;13.446;2024-01-11T13:10:40;18.98;;;7.05;;
37517;SDS011;23366;52.498;13.446;2024-01-11T13:13:06;19.48;;;10.02;;
37517;SDS011;23366;52.498;13.446;2024-01-11T13:15:33;16.60;;;9.50;;
37517;SDS011;23366;52.498;13.446;2024-01-11T13:18:01;17.42;;;9.00;;
37517;SDS011;23366;52.498;13.446;2024-01-11T13:20:28;22.80;;;8.07;;
37517;SDS011;23366;52.498;13.446;2024-01-11T13:23:13;20.42;;;8.57;;
37517;SDS011;23366;52.498;13.446;2024-01-11T13:25:40;13.70;;;6.40;;
37517;SDS011;23366;52.498;13.446;2024-01-11T13:28:06;19.52;;;7.97;;
37517;SDS011;23366;52.498;13.446;2024-01-11T13:30:32;14.50;;;7.35;;
37517;SDS011;23366;52.498;13.446;2024-01-11T13:32:58;15.85;;;7.30;;
37517;SDS011;23366;52.498;13.446;2024-01-11T13:35:24;18.17;;;6.60;;
37517;SDS011;23366;52.498;13.446;2024-01-11T13:37:50;19.25;;;8.68;;
37517;SDS011;23366;52.498;13.446;2024-01-11T13:40:16;13.68;;;6.90;;
37517;SDS011;23366;52.498;13.446;2024-01-11T13:42:42;14.90;;;7.80;;
37517;SDS011;23366;52.498;13.446;2024-01-11T13:45:08;18.38;;;7.88;;
37517;SDS011;23366;52.498;13.446;2024-01-11T13:47:35;15.85;;;7.00;;
37517;SDS011;23366;52.498;13.446;2024-01-11T13:50:01;26.08;;;9.15;;
37517;SDS011;23366;52.498;13.446;2024-01-11T13:52:28;18.90;;;7.03;;
37517;SDS011;23366;52.498;13.446;2024-01-11T13:54:54;15.75;;;7.00;;
37517;SDS011;23366;52.498;13.446;2024-01-11T13:57:20;17.17;;;8.30;;
37517;SDS011;23366;52.498;13.446;2024-01-11T13:59:46;16.20;;;7.63;;
37517;SDS011;23366;52.498;13.446;2024-01-11T14:02:12;14.63;;;6.65;;
37517;SDS011;23366;52.498;13.446;2024-01-11T14:04:38;18.85;;;8.32;;
37517;SDS011;23366;52.498;13.446;2024-01-11T14:07:05;16.48;;;7.20;;
37517;SDS011;23366;52.498;13.446;2024-01-11T14:09:31;22.75;;;8.43;;
37517;SDS011;23366;52.498;13.446;2024-01-11T14:11:57;23.05;;;7.35;;
37517;SDS011;23366;52.498;13.446;2024-01-11T14:14:23;15.43;;;7.47;;
37517;SDS011;23366;52.498;13.446;2024-01-11T14:16:49;14.88;;;6.75;;
37517;SDS011;23366;52.498;13.446;2024-01-11T14:19:16;14.50;;;6.53;;
37517;SDS011;23366;52.498;13.446;2024-01-11T14:21:42;14.85;;;5.60;;
37517;SDS011;23366;52.498;13.446;2024-01-11T14:24:08;16.13;;;5.80;;
37517;SDS011;23366;52.498;13.446;2024-01-11T14:26:34;12.45;;;7.32;;
37517;SDS011;23366;52.498;13.446;2024-01-11T14:29:00;14.15;;;6.85;;